sensor_id;sensor_type;location;lat;lon;timestamp;P1;durP1;ratioP1;P2;durP2;ratioP2
72645;SDS011;60687;53.876;10.674;2022-07-06T00:09:02;5.45;;;1.15;;
72645;SDS011;60687;53.876;10.674;2022-07-06T00:19:06;6.20;;;1.30;;
72645;SDS011;60687;53.876;10.674;2022-07-06T00:29:08;6.87;;;1.43;;
72645;SDS011;60687;53.876;10.674;2022-07-06T00:39:13;7.45;;;1.35;;
72645;SDS011;60687;53.876;10.674;2022-07-06T00:49:17;6.53;;;1.40;;
72645;SDS011;60687;53.876;10.674;2022-07-06T00:59:37;4.67;;;1.20;;
72645;SDS011;60687;53.876;10.674;2022-07-06T01:09:39;6.63;;;1.30;;
72645;SDS011;60687;53.876;10.674;2022-07-06T01:19:42;6.97;;;1.30;;
72645;SDS011;60687;53.876;10.674;2022-07-06T01:29:46;6.80;;;1.27;;
72645;SDS011;60687;53.876;10.674;2022-07-06T01:39:48;4.17;;;1.27;;
72645;SDS011;60687;53.876;10.674;2022-07-06T01:49:57;5.05;;;1.27;;
72645;SDS011;60687;53.876;10.674;2022-07-06T01:59:59;5.17;;;1.23;;
72645;SDS011;60687;53.876;10.674;2022-07-06T02:10:03;4.80;;;1.30;;
72645;SDS011;60687;53.876;10.674;2022-07-06T02:20:06;5.38;;;1.38;;
72645;SDS011;60687;53.876;10.674;2022-07-06T02:30:11;5.43;;;1.00;;
72645;SDS011;60687;53.876;10.674;2022-07-06T02:40:13;5.13;;;1.40;;
72645;SDS011;60687;53.876;10.674;2022-07-06T02:50:17;4.37;;;1.37;;
72645;SDS011;60687;53.876;10.674;2022-07-06T03:00:19;4.18;;;1.10;;
72645;SDS011;60687;53.876;10.674;2022-07-06T03:10:22;6.43;;;1.10;;
72645;SDS011;60687;53.876;10.674;2022-07-06T03:20:24;4.93;;;1.20;;
72645;SDS011;60687;53.876;10.674;2022-07-06T03:30:28;5.03;;;1.27;;
72645;SDS011;60687;53.876;10.674;2022-07-06T03:40:30;3.90;;;0.90;;
72645;SDS011;60687;53.876;10.674;2022-07-06T03:50:34;6.47;;;1.40;;
72645;SDS011;60687;53.876;10.674;2022-07-06T04:00:36;5.47;;;1.48;;
72645;SDS011;60687;53.876;10.674;2022-07-06T04:10:40;4.37;;;1.50;;
72645;SDS011;60687;53.876;10.674;2022-07-06T04:20:42;5.70;;;1.40;;
72645;SDS011;60687;53.876;10.674;2022-07-06T04:30:46;5.07;;;1.13;;
72645;SDS011;60687;53.876;10.674;2022-07-06T04:40:48;4.13;;;0.90;;
72645;SDS011;60687;53.876;10.674;2022-07-06T04:50:52;5.33;;;1.20;;
72645;SDS011;60687;53.876;10.674;2022-07-06T05:00:55;6.70;;;1.20;;
72645;SDS011;60687;53.876;10.674;2022-07-06T05:10:58;3.67;;;0.93;;
72645;SDS011;60687;53.876;10.674;2022-07-06T05:21:01;4.10;;;0.90;;
72645;SDS011;60687;53.876;10.674;2022-07-06T05:31:04;6.83;;;1.20;;
72645;SDS011;60687;53.876;10.674;2022-07-06T05:41:07;3.75;;;1.10;;
72645;SDS011;60687;53.876;10.674;2022-07-06T05:51:11;6.33;;;1.10;;
72645;SDS011;60687;53.876;10.674;2022-07-06T07:04:40;5.83;;;0.73;;
72645;SDS011;60687;53.876;10.674;2022-07-06T07:14:42;5.10;;;0.90;;
72645;SDS011;60687;53.876;10.674;2022-07-06T07:24:46;4.83;;;1.00;;
72645;SDS011;60687;53.876;10.674;2022-07-06T07:34:49;4.33;;;0.90;;
72645;SDS011;60687;53.876;10.674;2022-07-06T07:44:52;4.53;;;1.10;;
72645;SDS011;60687;53.876;10.674;2022-07-06T07:54:55;4.80;;;0.70;;
72645;SDS011;60687;53.876;10.674;2022-07-06T08:04:59;2.97;;;0.70;;
72645;SDS011;60687;53.876;10.674;2022-07-06T08:15:01;3.63;;;1.03;;
72645;SDS011;60687;53.876;10.674;2022-07-06T08:25:05;3.22;;;0.70;;
72645;SDS011;60687;53.876;10.674;2022-07-06T08:35:09;3.87;;;0.90;;
72645;SDS011;60687;53.876;10.674;2022-07-06T08:45:13;3.93;;;0.63;;
72645;SDS011;60687;53.876;10.674;2022-07-06T08:55:17;3.38;;;0.57;;
72645;SDS011;60687;53.876;10.674;2022-07-06T09:05:22;1.60;;;0.50;;
72645;SDS011;60687;53.876;10.674;2022-07-06T09:15:27;2.13;;;0.60;;
72645;SDS011;60687;53.876;10.674;2022-07-06T09:25:31;4.00;;;0.80;;
72645;SDS011;60687;53.876;10.674;2022-07-06T09:35:35;2.83;;;0.60;;
72645;SDS011;60687;53.876;10.674;2022-07-06T09:45:41;4.03;;;0.77;;
72645;SDS011;60687;53.876;10.674;2022-07-06T09:55:45;3.63;;;0.80;;
72645;SDS011;60687;53.876;10.674;2022-07-06T10:05:52;3.50;;;0.73;;
72645;SDS011;60687;53.876;10.674;2022-07-06T10:15:55;3.73;;;0.80;;
72645;SDS011;60687;53.876;10.674;2022-07-06T10:26:00;3.60;;;0.70;;
72645;SDS011;60687;53.876;10.674;2022-07-06T10:36:04;1.98;;;0.50;;
72645;SDS011;60687;53.876;10.674;2022-07-06T10:46:12;2.40;;;0.50;;
72645;SDS011;60687;53.876;10.674;2022-07-06T10:56:17;4.23;;;0.90;;
72645;SDS011;60687;53.876;10.674;2022-07-06T11:06:21;2.35;;;0.65;;
72645;SDS011;60687;53.876;10.674;2022-07-06T11:16:24;3.03;;;0.70;;
72645;SDS011;60687;53.876;10.674;2022-07-06T11:26:29;2.50;;;0.50;;
72645;SDS011;60687;53.876;10.674;2022-07-06T11:36:32;2.45;;;0.65;;
72645;SDS011;60687;53.876;10.674;2022-07-06T11:46:37;2.77;;;0.80;;
72645;SDS011;60687;53.876;10.674;2022-07-06T11:56:44;3.93;;;0.70;;
72645;SDS011;60687;53.876;10.674;2022-07-06T12:06:48;5.43;;;0.90;;
72645;SDS011;60687;53.876;10.674;2022-07-06T12:16:50;3.00;;;0.70;;
72645;SDS011;60687;53.876;10.674;2022-07-06T12:26:54;4.60;;;1.00;;
72645;SDS011;60687;53.876;10.674;2022-07-06T12:36:57;5.93;;;0.83;;
72645;SDS011;60687;53.876;10.674;2022-07-06T12:47:05;3.97;;;0.77;;
72645;SDS011;60687;53.876;10.674;2022-07-06T12:57:09;3.43;;;0.80;;
72645;SDS011;60687;53.876;10.674;2022-07-06T13:07:18;4.00;;;0.60;;
72645;SDS011;60687;53.876;10.674;2022-07-06T13:17:21;5.23;;;0.60;;
72645;SDS011;60687;53.876;10.674;2022-07-06T13:27:25;4.77;;;0.80;;
72645;SDS011;60687;53.876;10.674;2022-07-06T13:37:27;4.60;;;0.67;;
72645;SDS011;60687;53.876;10.674;2022-07-06T13:47:31;2.60;;;0.60;;
72645;SDS011;60687;53.876;10.674;2022-07-06T13:57:35;4.03;;;0.70;;
72645;SDS011;60687;53.876;10.674;2022-07-06T14:07:40;5.33;;;1.00;;
72645;SDS011;60687;53.876;10.674;2022-07-06T14:17:42;4.47;;;0.60;;
72645;SDS011;60687;53.876;10.674;2022-07-06T14:27:46;1.83;;;0.47;;
72645;SDS011;60687;53.876;10.674;2022-07-06T14:37:49;3.87;;;0.70;;
72645;SDS011;60687;53.876;10.674;2022-07-06T14:47:54;3.25;;;0.73;;
72645;SDS011;60687;53.876;10.674;2022-07-06T14:58:00;3.70;;;0.70;;
72645;SDS011;60687;53.876;10.674;2022-07-06T15:08:04;3.90;;;0.97;;
72645;SDS011;60687;53.876;10.674;2022-07-06T15:18:07;3.25;;;0.75;;
72645;SDS011;60687;53.876;10.674;2022-07-06T15:28:10;3.27;;;0.70;;
72645;SDS011;60687;53.876;10.674;2022-07-06T15:38:14;5.27;;;0.80;;
72645;SDS011;60687;53.876;10.674;2022-07-06T15:48:18;3.63;;;0.80;;
72645;SDS011;60687;53.876;10.674;2022-07-06T15:58:21;4.20;;;0.52;;
72645;SDS011;60687;53.876;10.674;2022-07-06T16:08:25;1.87;;;0.70;;
72645;SDS011;60687;53.876;10.674;2022-07-06T16:18:27;4.27;;;0.80;;
72645;SDS011;60687;53.876;10.674;2022-07-06T16:28:32;2.85;;;0.80;;
72645;SDS011;60687;53.876;10.674;2022-07-06T16:38:35;3.47;;;0.67;;
72645;SDS011;60687;53.876;10.674;2022-07-06T16:48:40;5.87;;;1.30;;
72645;SDS011;60687;53.876;10.674;2022-07-06T16:58:42;3.85;;;0.82;;
72645;SDS011;60687;53.876;10.674;2022-07-06T17:08:46;3.47;;;0.73;;
72645;SDS011;60687;53.876;10.674;2022-07-06T17:18:51;2.60;;;0.70;;
72645;SDS011;60687;53.876;10.674;2022-07-06T17:28:54;6.27;;;0.83;;
72645;SDS011;60687;53.876;10.674;2022-07-06T17:38:57;3.53;;;0.90;;
72645;SDS011;60687;53.876;10.674;2022-07-06T17:49:01;5.10;;;0.90;;
72645;SDS011;60687;53.876;10.674;2022-07-06T17:59:04;4.53;;;0.90;;
72645;SDS011;60687;53.876;10.674;2022-07-06T18:09:14;4.75;;;0.77;;
72645;SDS011;60687;53.876;10.674;2022-07-06T18:19:19;6.13;;;1.07;;
72645;SDS011;60687;53.876;10.674;2022-07-06T18:29:23;3.93;;;0.70;;
72645;SDS011;60687;53.876;10.674;2022-07-06T18:39:25;5.38;;;1.55;;
72645;SDS011;60687;53.876;10.674;2022-07-06T18:49:29;2.93;;;0.80;;
72645;SDS011;60687;53.876;10.674;2022-07-06T18:59:31;4.87;;;0.90;;
72645;SDS011;60687;53.876;10.674;2022-07-06T19:09:35;4.15;;;0.82;;
72645;SDS011;60687;53.876;10.674;2022-07-06T19:19:37;5.10;;;1.00;;
72645;SDS011;60687;53.876;10.674;2022-07-06T19:29:41;6.33;;;1.10;;
72645;SDS011;60687;53.876;10.674;2022-07-06T19:39:43;4.95;;;1.20;;
72645;SDS011;60687;53.876;10.674;2022-07-06T19:49:47;5.47;;;1.20;;
72645;SDS011;60687;53.876;10.674;2022-07-06T19:59:49;5.03;;;1.30;;
72645;SDS011;60687;53.876;10.674;2022-07-06T20:09:53;5.20;;;1.27;;
72645;SDS011;60687;53.876;10.674;2022-07-06T20:19:55;3.30;;;0.98;;
72645;SDS011;60687;53.876;10.674;2022-07-06T20:29:58;4.03;;;1.07;;
72645;SDS011;60687;53.876;10.674;2022-07-06T20:40:01;4.03;;;1.03;;
72645;SDS011;60687;53.876;10.674;2022-07-06T20:50:06;3.80;;;1.10;;
72645;SDS011;60687;53.876;10.674;2022-07-06T21:00:11;6.00;;;1.40;;
72645;SDS011;60687;53.876;10.674;2022-07-06T21:10:15;4.00;;;1.10;;
72645;SDS011;60687;53.876;10.674;2022-07-06T21:20:17;5.13;;;1.20;;
72645;SDS011;60687;53.876;10.674;2022-07-06T21:30:21;4.37;;;1.20;;
72645;SDS011;60687;53.876;10.674;2022-07-06T21:40:24;6.37;;;1.27;;
72645;SDS011;60687;53.876;10.674;2022-07-06T21:50:27;5.70;;;1.00;;
72645;SDS011;60687;53.876;10.674;2022-07-06T22:00:30;6.13;;;1.45;;
72645;SDS011;60687;53.876;10.674;2022-07-06T22:10:36;6.17;;;1.50;;
72645;SDS011;60687;53.876;10.674;2022-07-06T22:20:39;5.73;;;1.70;;
72645;SDS011;60687;53.876;10.674;2022-07-06T22:30:43;5.78;;;1.90;;
72645;SDS011;60687;53.876;10.674;2022-07-06T22:40:45;5.77;;;2.00;;
72645;SDS011;60687;53.876;10.674;2022-07-06T22:51:05;4.80;;;1.67;;
72645;SDS011;60687;53.876;10.674;2022-07-06T23:01:08;6.18;;;1.80;;
72645;SDS011;60687;53.876;10.674;2022-07-06T23:11:11;5.50;;;1.83;;
72645;SDS011;60687;53.876;10.674;2022-07-06T23:21:14;6.07;;;1.90;;
72645;SDS011;60687;53.876;10.674;2022-07-06T23:31:25;7.17;;;1.70;;
72645;SDS011;60687;53.876;10.674;2022-07-06T23:41:32;5.60;;;2.10;;
72645;SDS011;60687;53.876;10.674;2022-07-06T23:51:36;6.13;;;1.87;;
